Time;durP1;ratioP1;P1;durP2;ratioP2;P2;SDS_P1;SDS_P2;PMS_P1;PMS_P2;Temp;Humidity;BMP_temperature;BMP_pressure;BME280_temperature;BME280_humidity;BME280_pressure;Samples;Min_cycle;Max_cycle;Signal;HPM_P1;HPM_P2
2022/08/14 00:00:50;;;;;;;9.20;6.00;;;;;;;22.63;58.37;99692.53;6274484;22;20008;-74
2022/08/14 00:03:34;;;;;;;9.38;6.38;;;;;;;22.36;58.66;99659.13;6272953;22;20008;-75
2022/08/14 00:06:01;;;;;;;9.85;6.20;;;;;;;22.54;58.96;99691.97;6274249;22;20066;-75
2022/08/14 00:08:27;;;;;;;7.20;5.85;;;;;;;22.55;59.26;99704.59;6274401;22;20045;-75
2022/08/14 00:10:53;;;;;;;9.95;6.13;;;;;;;22.50;59.02;99698.94;6274309;22;20011;-74
2022/08/14 00:13:22;;;;;;;7.45;5.50;;;;;;;22.46;58.87;99700.44;6274662;22;20014;-75
2022/08/14 00:15:49;;;;;;;8.02;6.13;;;;;;;22.42;58.93;99697.31;6274939;22;20081;-73
2022/08/14 00:18:18;;;;;;;11.15;6.50;;;;;;;22.39;59.08;99702.41;6274612;22;20073;-74
2022/08/14 00:20:44;;;;;;;10.95;6.40;;;;;;;22.19;59.51;99675.25;6274572;22;20076;-75
2022/08/14 00:23:12;;;;;;;6.63;5.85;;;;;;;22.34;59.63;99696.75;6274470;22;19999;-75
2022/08/14 00:25:38;;;;;;;8.10;6.22;;;;;;;22.30;59.89;99698.28;6274815;22;20415;-75
2022/08/14 00:28:06;;;;;;;7.13;5.95;;;;;;;22.27;59.81;99699.56;6272611;22;20007;-75
2022/08/14 00:30:32;;;;;;;9.93;6.13;;;;;;;22.08;59.94;99658.75;6274289;22;20381;-74
2022/08/14 00:32:57;;;;;;;10.95;7.18;;;;;;;22.09;60.30;99663.19;6274486;22;20011;-74
2022/08/14 00:35:23;;;;;;;7.35;6.05;;;;;;;22.07;60.35;99662.56;6274399;22;20004;-74
2022/08/14 00:37:49;;;;;;;12.43;6.63;;;;;;;22.01;60.42;99658.84;6274002;22;20006;-74
2022/08/14 00:40:17;;;;;;;9.90;6.70;;;;;;;22.16;60.66;99681.16;6274727;22;20004;-74
2022/08/14 00:42:43;;;;;;;8.55;6.63;;;;;;;22.14;60.59;99686.03;6274381;22;20003;-73
2022/08/14 00:45:11;;;;;;;8.80;6.75;;;;;;;22.11;60.62;99691.09;6274201;22;20110;-74
2022/08/14 00:47:36;;;;;;;12.00;6.70;;;;;;;22.09;60.57;99690.50;6274105;22;20050;-73
2022/08/14 00:50:06;;;;;;;9.38;6.55;;;;;;;21.92;60.74;99665.63;6274214;22;20001;-74
2022/08/14 00:52:32;;;;;;;7.45;6.43;;;;;;;22.02;61.01;99682.34;6274014;22;20000;-74
2022/08/14 00:54:58;;;;;;;9.60;6.68;;;;;;;22.01;61.11;99686.16;6274553;22;20015;-74
2022/08/14 00:57:26;;;;;;;10.77;7.20;;;;;;;21.98;61.20;99689.31;6273741;22;20016;-74
2022/08/14 00:59:52;;;;;;;9.15;6.68;;;;;;;21.94;61.60;99688.13;6274121;22;19995;-73
2022/08/14 01:02:23;;;;;;;9.30;7.25;;;;;;;21.66;61.81;99646.72;6273866;22;20011;-75
2022/08/14 01:04:50;;;;;;;12.32;7.75;;;;;;;21.89;62.10;99693.38;6273918;22;20026;-75
2022/08/14 01:07:19;;;;;;;10.68;6.93;;;;;;;21.77;62.01;99676.03;6273940;22;20306;-74
2022/08/14 01:09:50;;;;;;;8.63;7.05;;;;;;;21.88;62.03;99696.34;6274116;22;20038;-75
2022/08/14 01:12:17;;;;;;;9.13;7.28;;;;;;;21.84;62.11;99692.41;6272425;22;20094;-74
2022/08/14 01:14:43;;;;;;;8.55;7.57;;;;;;;21.84;62.39;99703.31;6273902;22;20003;-74
2022/08/14 01:17:08;;;;;;;9.98;7.53;;;;;;;21.76;62.58;99687.19;6273498;22;20485;-74
2022/08/14 01:22:18;;;;;;;9.57;7.82;;;;;;;21.80;63.08;99697.44;6274188;22;20756;-74
2022/08/14 01:24:44;;;;;;;8.93;7.30;;;;;;;21.81;63.16;99692.84;6272193;22;20020;-74
2022/08/14 01:27:21;;;;;;;11.13;7.68;;;;;;;21.83;63.32;99690.72;6273901;22;20016;-74
2022/08/14 01:29:51;;;;;;;11.85;7.95;;;;;;;21.80;63.30;99680.25;6273834;22;20335;-74
2022/08/14 01:32:17;;;;;;;8.95;7.70;;;;;;;21.91;63.39;99694.03;6274226;22;20390;-73
2022/08/14 01:34:46;;;;;;;8.23;7.18;;;;;;;21.94;63.40;99699.03;6272249;22;20034;-74
2022/08/14 01:37:12;;;;;;;8.48;7.60;;;;;;;21.81;63.43;99662.81;6272029;22;20004;-73
2022/08/14 01:39:37;;;;;;;11.32;7.95;;;;;;;22.00;63.47;99689.09;6273725;22;19995;-74
2022/08/14 01:42:04;;;;;;;8.77;7.88;;;;;;;22.01;63.42;99693.50;6273502;22;20008;-73
2022/08/14 01:44:30;;;;;;;9.43;7.60;;;;;;;22.05;63.43;99702.91;6274049;22;20000;-74
2022/08/14 01:46:58;;;;;;;10.00;7.57;;;;;;;22.07;63.54;99696.19;6273546;22;20016;-75
2022/08/14 01:49:25;;;;;;;10.55;8.18;;;;;;;22.07;63.65;99700.81;6273502;22;20086;-73
2022/08/14 01:51:55;;;;;;;9.05;7.40;;;;;;;21.98;63.51;99677.56;6272323;22;20047;-73
2022/08/14 01:54:21;;;;;;;9.43;7.78;;;;;;;21.93;63.66;99666.50;6273463;22;20015;-73
2022/08/14 01:56:50;;;;;;;11.18;8.07;;;;;;;21.75;63.96;99648.16;6273997;22;20079;-73
2022/08/14 01:59:16;;;;;;;9.10;8.00;;;;;;;22.03;64.03;99694.13;6273570;22;19999;-75
2022/08/14 02:01:42;;;;;;;11.73;7.78;;;;;;;21.95;64.33;99678.00;6273729;22;20641;-74
2022/08/14 02:04:08;;;;;;;10.30;8.25;;;;;;;22.03;64.35;99684.00;6273257;22;20004;-74
2022/08/14 02:06:36;;;;;;;11.90;8.88;;;;;;;22.04;64.83;99688.44;6273954;22;19999;-75
2022/08/14 02:09:06;;;;;;;12.57;8.77;;;;;;;22.04;64.96;99685.72;6273664;22;20003;-75
2022/08/14 02:11:33;;;;;;;9.93;8.65;;;;;;;22.04;65.05;99682.97;6273529;22;20420;-74
2022/08/14 02:14:05;;;;;;;10.30;8.73;;;;;;;22.06;65.18;99683.56;6273723;22;20003;-73
2022/08/14 02:16:37;;;;;;;10.38;8.00;;;;;;;22.08;65.50;99683.34;6273394;22;20432;-74
2022/08/14 02:19:08;;;;;;;11.13;8.55;;;;;;;22.08;65.85;99683.34;6275010;22;20432;-74
2022/08/14 02:21:35;;;;;;;12.00;8.45;;;;;;;22.07;65.82;99678.97;6275592;22;20003;-74
2022/08/14 02:24:03;;;;;;;9.02;8.13;;;;;;;22.03;65.85;99681.28;6276062;22;20090;-74
2022/08/14 02:26:32;;;;;;;9.68;7.80;;;;;;;22.06;66.00;99686.31;6275604;22;20065;-73
2022/08/14 02:29:02;;;;;;;11.68;9.13;;;;;;;22.05;66.14;99684.63;6275448;22;20039;-74
2022/08/14 02:31:31;;;;;;;9.82;8.82;;;;;;;22.03;66.16;99677.75;6275423;22;20428;-74
2022/08/14 02:33:58;;;;;;;11.10;8.90;;;;;;;21.92;66.32;99656.59;6275644;22;20023;-74
2022/08/14 02:36:24;;;;;;;10.98;9.07;;;;;;;22.00;66.95;99675.44;6275322;22;20011;-74
2022/08/14 02:38:50;;;;;;;12.93;9.07;;;;;;;21.70;67.00;99626.09;6276068;22;20341;-74
2022/08/14 02:41:16;;;;;;;13.73;9.75;;;;;;;21.90;67.61;99664.19;6275732;22;20007;-72
2022/08/14 02:43:41;;;;;;;12.57;9.30;;;;;;;21.93;67.55;99674.69;6275677;22;20026;-74
2022/08/14 02:46:09;;;;;;;12.07;8.50;;;;;;;21.86;67.60;99658.34;6273839;22;19996;-74
2022/08/14 02:48:41;;;;;;;14.73;10.07;;;;;;;21.79;67.93;99646.63;6275188;22;20019;-74
2022/08/14 02:51:12;;;;;;;12.18;8.95;;;;;;;21.86;68.11;99666.53;6275248;22;20443;-74
2022/08/14 02:53:44;;;;;;;10.93;9.35;;;;;;;21.85;68.47;99673.06;6275631;22;20000;-75
2022/08/14 02:56:14;;;;;;;13.23;9.32;;;;;;;21.84;68.86;99665.09;6275316;22;20082;-74
2022/08/14 02:58:43;;;;;;;12.52;9.13;;;;;;;21.80;68.85;99663.88;6275980;22;20008;-74
2022/08/14 03:01:09;;;;;;;15.10;8.82;;;;;;;21.68;68.86;99644.63;6275583;22;20448;-75
2022/08/14 03:03:36;;;;;;;14.25;9.90;;;;;;;21.70;69.00;99658.03;6275801;22;20000;-75
2022/08/14 03:06:06;;;;;;;10.82;8.68;;;;;;;21.71;68.93;99668.75;6275269;22;20000;-75
2022/08/14 03:08:32;;;;;;;10.77;9.00;;;;;;;21.66;68.95;99663.09;6275318;22;20520;-73
2022/08/14 03:11:05;;;;;;;13.60;9.65;;;;;;;21.60;69.11;99657.69;6275271;22;20007;-74
2022/08/14 03:13:34;;;;;;;11.13;9.05;;;;;;;21.58;69.27;99660.66;6275230;22;20036;-74
2022/08/14 03:16:01;;;;;;;25.23;10.75;;;;;;;21.55;69.53;99662.97;6273712;22;20098;-74
2022/08/14 03:18:27;;;;;;;14.38;9.48;;;;;;;21.43;69.74;99660.13;6275302;22;20003;-74
2022/08/14 03:20:53;;;;;;;14.00;9.25;;;;;;;21.29;69.83;99641.31;6275008;22;20003;-74
2022/08/14 03:23:19;;;;;;;12.80;10.13;;;;;;;21.42;70.38;99671.25;6275091;22;20006;-75
2022/08/14 03:25:46;;;;;;;15.23;9.35;;;;;;;21.37;70.52;99673.78;6275422;22;20015;-75
2022/08/14 03:28:13;;;;;;;32.53;12.02;;;;;;;21.22;70.67;99662.34;6274582;22;20004;-73
2022/08/14 03:30:39;;;;;;;15.40;10.27;;;;;;;21.25;71.58;99670.91;6275143;22;20003;-74
2022/08/14 03:33:06;;;;;;;14.18;10.55;;;;;;;21.22;72.10;99686.91;6274898;22;20008;-74
2022/08/14 03:35:32;;;;;;;13.75;10.52;;;;;;;21.15;72.56;99676.00;6275314;22;20030;-74
2022/08/14 03:38:08;;;;;;;13.43;10.43;;;;;;;21.00;72.88;99661.84;6273471;22;20705;-74
2022/08/14 03:40:38;;;;;;;15.27;10.15;;;;;;;21.01;73.32;99670.84;6275192;22;20070;-74
2022/08/14 03:43:08;;;;;;;14.30;10.90;;;;;;;21.08;73.52;99683.41;6275049;22;20450;-73
2022/08/14 03:45:36;;;;;;;12.15;9.63;;;;;;;21.07;73.91;99684.47;6275352;22;20010;-74
2022/08/14 03:48:22;;;;;;;13.23;10.50;;;;;;;21.08;74.23;99682.56;6274731;22;20451;-74
2022/08/14 03:50:53;;;;;;;16.60;10.18;;;;;;;21.07;74.46;99679.00;6275154;22;20007;-74
2022/08/14 03:53:19;;;;;;;15.05;10.45;;;;;;;20.98;74.41;99660.38;6274688;22;20038;-74
2022/08/14 03:55:46;;;;;;;14.20;10.50;;;;;;;21.10;74.63;99683.19;6273337;22;20062;-74
2022/08/14 03:58:12;;;;;;;16.70;10.85;;;;;;;21.00;74.68;99671.91;6273014;22;20328;-74
2022/08/14 04:00:39;;;;;;;19.13;11.02;;;;;;;21.07;74.59;99683.63;6275252;22;20003;-74
2022/08/14 04:03:08;;;;;;;19.15;11.38;;;;;;;21.03;74.64;99676.94;6273285;22;20091;-74
2022/08/14 04:05:36;;;;;;;12.10;10.45;;;;;;;21.08;74.90;99690.72;6273290;22;20027;-73
2022/08/14 04:08:02;;;;;;;14.43;11.30;;;;;;;21.11;74.95;99693.88;6274188;22;20023;-74
2022/08/14 04:10:27;;;;;;;16.38;11.10;;;;;;;20.96;75.32;99670.69;6274957;22;20069;-74
2022/08/14 04:12:59;;;;;;;14.82;10.73;;;;;;;21.07;75.61;99684.47;6275070;22;20011;-74
2022/08/14 04:15:25;;;;;;;14.68;11.40;;;;;;;20.95;76.76;99661.66;6274997;22;20763;-73
2022/08/14 04:17:52;;;;;;;14.20;10.48;;;;;;;21.11;76.95;99690.31;6273333;22;20047;-74
2022/08/14 04:20:18;;;;;;;20.80;12.27;;;;;;;21.12;77.99;99698.25;6274322;22;20030;-73
2022/08/14 04:22:44;;;;;;;20.63;12.00;;;;;;;20.92;77.75;99664.78;6274616;22;20075;-74
2022/08/14 04:25:10;;;;;;;16.83;11.50;;;;;;;21.13;78.25;99693.66;6274608;22;20086;-74
2022/08/14 04:27:37;;;;;;;17.90;11.32;;;;;;;21.15;78.26;99689.66;6273050;22;20062;-74
2022/08/14 04:30:04;;;;;;;16.92;11.90;;;;;;;21.14;78.13;99690.72;6274350;22;20709;-74
2022/08/14 04:32:32;;;;;;;19.42;12.38;;;;;;;21.12;78.43;99687.34;6274236;22;20341;-74
2022/08/14 04:34:59;;;;;;;15.30;11.90;;;;;;;21.18;78.45;99693.84;6274446;22;20011;-75
2022/08/14 04:45:39;;;;;;;22.60;12.68;;;;;;;21.09;79.27;99662.44;6274243;22;20030;-74
2022/08/14 04:48:14;;;;;;;16.40;11.98;;;;;;;21.26;79.64;99686.25;6274092;22;20441;-73
2022/08/14 04:50:45;;;;;;;16.80;12.98;;;;;;;21.30;79.91;99694.81;6274451;22;20011;-75
2022/08/14 04:53:13;;;;;;;16.17;12.02;;;;;;;21.12;79.53;99656.53;6274324;22;20003;-74
2022/08/14 04:55:41;;;;;;;21.48;12.50;;;;;;;21.36;80.23;99688.50;6274505;22;20018;-74
2022/08/14 04:58:08;;;;;;;12.98;11.52;;;;;;;21.31;80.23;99675.50;6272748;22;20003;-74
2022/08/14 05:00:35;;;;;;;13.85;12.20;;;;;;;21.40;80.58;99690.56;6274104;22;20010;-74
2022/08/14 05:03:02;;;;;;;18.77;13.02;;;;;;;21.41;80.61;99692.22;6274276;22;20000;-74
2022/08/14 05:05:29;;;;;;;15.35;12.82;;;;;;;21.43;80.79;99692.84;6272945;22;19999;-74
2022/08/14 05:07:55;;;;;;;19.60;12.90;;;;;;;21.38;80.86;99681.75;6274084;22;20057;-75
2022/08/14 05:10:20;;;;;;;15.85;12.45;;;;;;;21.43;81.11;99681.94;6274183;22;20011;-74
2022/08/14 05:12:46;;;;;;;28.27;14.43;;;;;;;21.49;81.25;99691.13;6273847;22;20512;-74
2022/08/14 05:15:12;;;;;;;20.92;12.68;;;;;;;21.53;81.45;99695.09;6274010;22;20042;-74
2022/08/14 05:17:42;;;;;;;28.35;13.45;;;;;;;21.56;81.60;99698.22;6272390;22;20010;-74
2022/08/14 05:20:08;;;;;;;23.80;14.13;;;;;;;21.60;81.62;99694.00;6272017;22;20008;-73
2022/08/14 05:22:34;;;;;;;20.35;13.48;;;;;;;21.64;80.95;99703.41;6273834;22;20004;-74
2022/08/14 05:25:00;;;;;;;20.10;13.75;;;;;;;21.55;80.94;99680.19;6272349;22;20743;-74
2022/08/14 05:27:26;;;;;;;18.02;13.32;;;;;;;21.71;80.82;99697.91;6271401;22;20023;-66
2022/08/14 05:29:53;;;;;;;15.48;12.95;;;;;;;21.77;80.69;99702.53;6272370;22;20004;-64
2022/08/14 05:32:19;;;;;;;17.23;13.23;;;;;;;21.78;80.45;99696.00;6272353;22;20030;-66
2022/08/14 05:34:45;;;;;;;15.82;13.52;;;;;;;21.87;80.35;99705.59;6272858;22;20003;-66
2022/08/14 05:37:11;;;;;;;17.10;13.05;;;;;;;21.67;80.36;99661.22;6272173;22;20003;-67
2022/08/14 05:39:38;;;;;;;19.95;13.63;;;;;;;21.95;79.91;99703.44;6272196;22;20057;-66
2022/08/14 05:42:03;;;;;;;22.88;12.63;;;;;;;22.01;79.64;99702.53;6272166;22;20392;-67
2022/08/14 05:44:29;;;;;;;22.40;14.25;;;;;;;22.04;79.63;99701.25;6272290;22;20104;-67
2022/08/14 05:46:54;;;;;;;17.20;13.40;;;;;;;22.10;79.60;99701.22;6272800;22;20659;-73
2022/08/14 05:49:20;;;;;;;18.55;12.85;;;;;;;22.16;79.26;99703.03;6273352;22;20019;-73
2022/08/14 05:51:46;;;;;;;19.15;13.35;;;;;;;22.12;79.02;99695.53;6271810;22;20496;-74
2022/08/14 05:54:11;;;;;;;20.80;12.95;;;;;;;22.25;78.75;99701.69;6272867;22;20074;-74
2022/08/14 05:56:37;;;;;;;18.88;13.27;;;;;;;22.32;78.27;99704.38;6273349;22;20019;-75
2022/08/14 05:59:02;;;;;;;18.05;13.00;;;;;;;22.28;78.58;99684.84;6273716;22;20003;-75
2022/08/14 06:01:28;;;;;;;17.05;12.48;;;;;;;22.44;78.13;99699.81;6272126;22;20003;-75
2022/08/14 06:03:53;;;;;;;16.73;11.70;;;;;;;22.45;77.72;99687.00;6274081;22;20087;-75
2022/08/14 06:06:19;;;;;;;18.05;12.40;;;;;;;22.51;77.07;99695.16;6273934;22;20000;-74
2022/08/14 06:08:44;;;;;;;16.17;11.70;;;;;;;22.59;76.88;99703.06;6273391;22;20019;-75
2022/08/14 06:11:10;;;;;;;12.52;11.00;;;;;;;22.64;76.43;99697.75;6273471;22;20623;-74
2022/08/14 06:13:38;;;;;;;13.98;11.57;;;;;;;22.62;76.05;99688.94;6273609;22;20109;-74
2022/08/14 06:16:03;;;;;;;13.48;11.95;;;;;;;22.75;76.22;99701.59;6273746;22;20420;-74
2022/08/14 06:18:29;;;;;;;16.80;12.02;;;;;;;22.82;75.81;99705.13;6273683;22;19996;-74
2022/08/14 06:20:55;;;;;;;15.63;11.95;;;;;;;22.87;75.13;99706.13;6271401;22;20440;-74
2022/08/14 06:23:20;;;;;;;15.38;11.98;;;;;;;22.68;75.46;99685.28;6271767;22;20008;-74
2022/08/14 06:25:46;;;;;;;15.93;12.07;;;;;;;22.91;75.05;99703.75;6271855;22;20023;-74
2022/08/14 06:28:22;;;;;;;14.95;11.65;;;;;;;22.87;74.29;99686.97;6273576;22;20428;-75
2022/08/14 06:30:48;;;;;;;13.00;11.35;;;;;;;23.02;74.54;99709.28;6273786;22;20003;-75
2022/08/14 06:33:16;;;;;;;14.27;11.30;;;;;;;22.85;74.49;99669.94;6273898;22;20421;-75
2022/08/14 06:35:46;;;;;;;13.27;11.88;;;;;;;23.14;74.48;99706.59;6273522;22;20003;-74
2022/08/14 06:38:17;;;;;;;14.82;12.27;;;;;;;23.15;74.03;99692.69;6273879;22;20478;-74
2022/08/14 06:40:43;;;;;;;12.02;10.57;;;;;;;23.15;74.14;99684.47;6273392;22;20023;-73
2022/08/14 06:43:11;;;;;;;14.70;11.55;;;;;;;23.29;73.73;99705.19;6273231;22;20003;-74
2022/08/14 06:45:40;;;;;;;15.32;11.68;;;;;;;23.32;73.70;99707.47;6273742;22;20015;-73
2022/08/14 06:48:31;;;;;;;17.45;12.50;;;;;;;23.36;73.51;99705.91;6273798;22;20387;-73
2022/08/14 06:50:57;;;;;;;12.75;10.90;;;;;;;23.41;73.13;99703.31;6268883;22;20395;-74
2022/08/14 06:53:22;;;;;;;14.63;12.52;;;;;;;23.36;73.44;99689.50;6273078;22;20043;-75
2022/08/14 06:55:49;;;;;;;17.55;11.85;;;;;;;23.38;72.83;99684.59;6273351;22;20306;-73
2022/08/14 06:58:16;;;;;;;14.10;11.70;;;;;;;23.30;73.00;99664.94;6271913;22;20101;-73
2022/08/14 07:06:13;;;;;;;15.68;12.52;;;;;;;23.64;71.76;99711.59;6275133;22;20630;-75
2022/08/14 07:08:38;;;;;;;13.82;11.18;;;;;;;23.67;71.79;99700.19;6275347;22;19999;-74
2022/08/14 07:11:04;;;;;;;13.55;10.43;;;;;;;23.77;71.88;99705.91;6275507;22;20701;-74
2022/08/14 07:13:30;;;;;;;13.00;10.98;;;;;;;23.84;71.59;99706.69;6275234;22;20587;-74
2022/08/14 07:15:56;;;;;;;15.80;11.93;;;;;;;23.76;71.16;99689.75;6273433;22;20120;-75
2022/08/14 07:18:25;;;;;;;14.68;11.90;;;;;;;23.97;70.74;99709.25;6275375;22;20023;-74
2022/08/14 07:20:52;;;;;;;17.45;11.10;;;;;;;24.03;70.38;99713.78;6275219;22;20007;-74
2022/08/14 07:23:18;;;;;;;13.20;11.88;;;;;;;24.08;70.06;99711.16;6274799;22;20318;-74
2022/08/14 07:25:44;;;;;;;13.48;11.68;;;;;;;24.12;70.04;99706.03;6275695;22;20018;-74
2022/08/14 07:28:12;;;;;;;12.93;11.00;;;;;;;24.19;69.73;99709.50;6274694;22;20000;-74
2022/08/14 07:30:38;;;;;;;12.75;11.45;;;;;;;24.25;69.74;99697.59;6274797;22;20014;-73
2022/08/14 07:33:05;;;;;;;13.13;11.13;;;;;;;24.34;69.05;99694.25;6275072;22;20079;-74
2022/08/14 07:35:32;;;;;;;11.45;10.35;;;;;;;24.52;68.85;99706.16;6274797;22;20487;-74
2022/08/14 07:37:57;;;;;;;13.27;11.32;;;;;;;24.57;68.02;99687.09;6274726;22;20062;-73
2022/08/14 07:40:23;;;;;;;13.05;11.07;;;;;;;24.76;67.48;99694.13;6274640;22;20428;-73
2022/08/14 07:42:49;;;;;;;14.52;10.85;;;;;;;25.03;67.03;99706.22;6274996;22;20409;-74
2022/08/14 07:45:15;;;;;;;13.63;10.93;;;;;;;25.20;66.02;99710.72;6272805;22;20046;-74
2022/08/14 07:47:42;;;;;;;17.92;11.20;;;;;;;25.41;64.90;99714.72;6274574;22;20444;-73
2022/08/14 07:50:13;;;;;;;13.35;10.20;;;;;;;25.60;63.89;99699.72;6274593;22;20432;-74
2022/08/14 07:52:40;;;;;;;11.70;9.95;;;;;;;25.76;63.92;99697.00;6273036;22;20031;-75
2022/08/14 07:55:07;;;;;;;12.75;10.45;;;;;;;25.87;63.46;99690.59;6274845;22;20039;-74
2022/08/14 07:57:33;;;;;;;13.98;10.65;;;;;;;26.13;61.89;99700.13;6274699;22;20022;-73
2022/08/14 07:59:58;;;;;;;12.30;10.98;;;;;;;26.27;61.48;99706.94;6275024;22;20019;-75
2022/08/14 08:02:29;;;;;;;11.25;9.85;;;;;;;26.40;60.55;99701.09;6274497;22;20000;-75
2022/08/14 08:04:56;;;;;;;11.90;10.68;;;;;;;26.37;59.71;99685.09;6274589;22;19999;-75
2022/08/14 08:07:24;;;;;;;13.50;10.80;;;;;;;26.61;59.45;99699.50;6273381;22;20066;-74
2022/08/14 08:09:54;;;;;;;13.27;10.63;;;;;;;26.71;59.14;99696.91;6274960;22;20424;-74
2022/08/14 08:12:20;;;;;;;11.55;10.38;;;;;;;26.74;58.48;99678.00;6272909;22;20022;-74
2022/08/14 08:14:50;;;;;;;12.65;10.40;;;;;;;27.01;57.89;99692.66;6274504;22;20004;-75
2022/08/14 08:17:19;;;;;;;13.85;9.90;;;;;;;26.82;57.76;99661.03;6273923;22;20078;-74
2022/08/14 08:19:47;;;;;;;12.35;10.95;;;;;;;27.08;57.97;99692.47;6272737;22;20014;-75
2022/08/14 08:22:12;;;;;;;12.25;10.48;;;;;;;27.14;57.36;99680.44;6274325;22;20488;-74
2022/08/14 08:24:38;;;;;;;12.13;10.30;;;;;;;27.23;57.30;99674.22;6272795;22;20026;-75
2022/08/14 08:27:17;;;;;;;15.90;10.75;;;;;;;27.29;56.82;99659.44;6274342;22;20669;-75
2022/08/14 08:29:42;;;;;;;11.40;10.20;;;;;;;27.51;56.50;99674.00;6273991;22;20000;-74
2022/08/14 08:32:08;;;;;;;12.15;10.32;;;;;;;27.61;55.87;99665.84;6273942;22;20010;-74
2022/08/14 08:34:47;;;;;;;13.07;10.23;;;;;;;27.78;55.52;99679.47;6274034;22;20007;-73
2022/08/14 08:37:13;;;;;;;12.88;11.20;;;;;;;27.85;55.02;99678.22;6273608;22;20003;-74
2022/08/14 08:39:47;;;;;;;10.82;9.65;;;;;;;27.99;54.95;99679.44;6273964;22;20008;-74
2022/08/14 08:42:24;;;;;;;13.48;10.57;;;;;;;27.95;54.46;99653.47;6273446;22;20007;-74
2022/08/14 08:44:54;;;;;;;14.85;10.43;;;;;;;28.25;54.58;99681.28;6273972;22;20004;-74
2022/08/14 08:47:19;;;;;;;19.67;10.43;;;;;;;28.37;54.17;99683.84;6273529;22;20015;-74
2022/08/14 08:49:45;;;;;;;15.80;10.48;;;;;;;28.45;53.56;99684.25;6273769;22;20015;-74
2022/08/14 08:52:10;;;;;;;11.90;9.93;;;;;;;28.58;52.82;99682.94;6273828;22;20003;-74
2022/08/14 08:54:37;;;;;;;13.80;10.32;;;;;;;28.52;52.63;99673.81;6274096;22;20008;-74
2022/08/14 08:57:11;;;;;;;15.20;11.27;;;;;;;28.59;51.95;99672.75;6273596;22;20023;-75
2022/08/14 08:59:36;;;;;;;11.68;10.32;;;;;;;28.79;52.09;99678.38;6273297;22;20023;-75
2022/08/14 09:02:05;;;;;;;14.32;10.00;;;;;;;28.87;51.71;99670.41;6273588;22;20087;-74
2022/08/14 09:04:40;;;;;;;11.60;10.20;;;;;;;28.94;51.04;99668.22;6273407;22;20029;-74
2022/08/14 09:07:06;;;;;;;17.42;10.10;;;;;;;28.93;50.79;99666.56;6273629;22;20507;-75
2022/08/14 09:09:32;;;;;;;16.83;10.10;;;;;;;28.91;50.83;99657.72;6273402;22;20016;-74
2022/08/14 09:12:00;;;;;;;12.30;10.32;;;;;;;29.11;50.16;99663.34;6273435;22;20033;-74
2022/08/14 09:14:28;;;;;;;11.52;9.00;;;;;;;29.17;49.97;99661.47;6273440;22;20007;-74
2022/08/14 09:16:56;;;;;;;11.93;9.10;;;;;;;29.25;49.86;99655.38;6273649;22;20004;-75
2022/08/14 09:19:21;;;;;;;12.43;9.60;;;;;;;29.42;49.33;99667.03;6273403;22;20006;-74
2022/08/14 09:21:47;;;;;;;10.95;8.50;;;;;;;29.47;47.75;99664.28;6273577;22;20082;-74
2022/08/14 09:24:13;;;;;;;9.90;8.90;;;;;;;29.61;48.46;99666.28;6273649;22;20083;-74
2022/08/14 09:26:40;;;;;;;10.82;9.32;;;;;;;29.67;47.45;99659.66;6273426;22;20046;-76
2022/08/14 09:29:07;;;;;;;13.00;9.30;;;;;;;29.70;47.01;99661.03;6273126;22;20484;-74
2022/08/14 09:31:36;;;;;;;10.10;7.60;;;;;;;29.58;44.93;99628.09;6273218;22;20004;-74
2022/08/14 09:34:26;;;;;;;12.13;8.38;;;;;;;29.85;44.86;99655.50;6273060;22;20031;-74
2022/08/14 09:37:19;;;;;;;10.73;7.82;;;;;;;29.78;45.74;99638.38;6271478;22;20058;-74
2022/08/14 09:40:07;;;;;;;8.73;7.82;;;;;;;30.00;44.39;99652.75;6273203;22;20065;-74
2022/08/14 09:42:48;;;;;;;8.65;7.38;;;;;;;30.09;43.92;99651.09;6273135;22;20007;-75
2022/08/14 09:45:16;;;;;;;10.85;8.25;;;;;;;30.08;44.61;99630.91;6273115;22;20006;-74
2022/08/14 09:47:48;;;;;;;9.85;8.32;;;;;;;30.12;44.45;99622.88;6272832;22;20023;-74
2022/08/14 09:50:31;;;;;;;9.50;7.85;;;;;;;30.35;44.04;99641.69;6273556;22;20000;-75
2022/08/14 09:53:06;;;;;;;8.65;7.78;;;;;;;30.37;42.78;99636.72;6271506;22;20083;-75
2022/08/14 09:55:37;;;;;;;8.70;7.22;;;;;;;30.40;41.86;99631.44;6272975;22;20015;-74
2022/08/14 09:58:10;;;;;;;7.93;6.97;;;;;;;30.43;41.30;99638.34;6272900;22;20031;-75
2022/08/14 10:00:47;;;;;;;9.50;6.67;;;;;;;30.47;40.34;99636.69;6273132;22;20011;-74
2022/08/14 10:03:29;;;;;;;7.78;6.88;;;;;;;30.55;41.07;99627.81;6273144;22;20053;-76
2022/08/14 10:06:24;;;;;;;11.40;7.40;;;;;;;30.62;41.93;99628.31;6273173;22;20432;-74
2022/08/14 10:09:02;;;;;;;8.23;7.43;;;;;;;30.69;41.78;99616.97;6272574;22;20012;-66
2022/08/14 10:11:36;;;;;;;9.65;7.32;;;;;;;30.65;41.17;99613.94;6272287;22;20004;-66
2022/08/14 10:14:17;;;;;;;9.35;6.65;;;;;;;30.66;40.40;99607.25;6272272;22;20063;-66
2022/08/14 10:16:49;;;;;;;8.07;6.93;;;;;;;30.77;40.81;99614.47;6272363;22;20434;-66
2022/08/14 10:19:17;;;;;;;8.35;7.10;;;;;;;30.74;41.12;99615.03;6272367;22;20011;-66
2022/08/14 10:21:55;;;;;;;9.30;7.60;;;;;;;30.68;41.31;99618.91;6272424;22;20445;-66
2022/08/14 10:24:26;;;;;;;9.65;7.07;;;;;;;30.63;40.58;99612.56;6272256;22;20004;-66
2022/08/14 10:26:54;;;;;;;11.80;7.72;;;;;;;30.51;40.74;99605.41;6272156;22;20417;-65
2022/08/14 10:29:32;;;;;;;8.20;7.40;;;;;;;30.51;40.98;99622.00;6270052;22;20066;-66
2022/08/14 10:31:58;;;;;;;11.82;7.85;;;;;;;30.37;41.05;99603.50;6270326;22;20003;-65
2022/08/14 10:34:34;;;;;;;9.18;7.40;;;;;;;30.38;41.38;99619.84;6272162;22;20000;-67
2022/08/14 10:37:12;;;;;;;10.10;8.45;;;;;;;30.28;40.75;99608.75;6270173;22;20014;-65
2022/08/14 10:39:42;;;;;;;8.93;7.47;;;;;;;30.27;40.59;99611.81;6272624;22;19999;-65
2022/08/14 10:42:13;;;;;;;9.23;7.60;;;;;;;30.22;41.11;99614.59;6273755;22;20083;-66
2022/08/14 10:44:44;;;;;;;10.13;8.02;;;;;;;30.16;41.16;99618.44;6273748;22;20000;-66
2022/08/14 10:47:12;;;;;;;11.32;7.75;;;;;;;30.14;41.22;99609.59;6273846;22;20034;-66
2022/08/14 10:49:48;;;;;;;7.72;7.00;;;;;;;30.12;41.25;99620.13;6273794;22;20022;-66
2022/08/14 10:52:30;;;;;;;10.73;7.70;;;;;;;30.11;40.68;99612.94;6273888;22;20068;-66
2022/08/14 10:55:14;;;;;;;7.63;6.93;;;;;;;30.11;40.66;99610.97;6273957;22;20054;-65
2022/08/14 10:57:49;;;;;;;10.02;7.03;;;;;;;30.13;40.68;99605.16;6273628;22;20007;-66
2022/08/14 11:00:17;;;;;;;8.80;7.90;;;;;;;29.95;40.86;99578.91;6273742;22;20008;-66
2022/08/14 11:02:43;;;;;;;7.32;6.63;;;;;;;30.12;40.71;99601.56;6273794;22;20424;-65
2022/08/14 11:05:12;;;;;;;8.43;7.53;;;;;;;30.17;40.67;99609.03;6273692;22;20030;-65
2022/08/14 11:07:53;;;;;;;7.78;6.97;;;;;;;30.15;40.15;99602.97;6273354;22;20309;-67
2022/08/14 11:10:18;;;;;;;12.13;7.80;;;;;;;30.18;40.22;99605.19;6271597;22;20012;-66
2022/08/14 11:12:55;;;;;;;7.57;6.78;;;;;;;30.20;40.06;99601.03;6273670;22;20278;-65
2022/08/14 11:15:27;;;;;;;8.48;7.63;;;;;;;30.21;40.43;99596.34;6271925;22;20027;-67
2022/08/14 11:17:54;;;;;;;8.60;7.55;;;;;;;30.17;40.30;99600.72;6273625;22;20010;-66
2022/08/14 11:20:22;;;;;;;9.07;7.95;;;;;;;29.92;40.78;99562.88;6273561;22;20000;-66
2022/08/14 11:22:53;;;;;;;10.98;7.00;;;;;;;29.94;41.00;99566.19;6273531;22;20011;-66
2022/08/14 11:25:22;;;;;;;10.00;7.90;;;;;;;30.09;41.47;99593.00;6273520;22;20007;-66
2022/08/14 11:27:50;;;;;;;9.70;8.10;;;;;;;30.10;41.76;99602.97;6273419;22;20008;-65
2022/08/14 11:30:22;;;;;;;15.07;8.60;;;;;;;30.10;42.15;99597.41;6273448;22;20022;-66
2022/08/14 11:32:50;;;;;;;8.23;7.32;;;;;;;30.05;42.24;99594.69;6273517;22;20484;-66
2022/08/14 11:35:18;;;;;;;8.68;7.00;;;;;;;30.00;41.86;99597.44;6273688;22;20004;-66
2022/08/14 11:38:00;;;;;;;6.78;5.50;;;;;;;29.90;40.38;99586.38;6273795;22;20004;-66
2022/08/14 11:40:29;;;;;;;5.05;4.57;;;;;;;29.87;38.99;99586.94;6273916;22;20023;-66
2022/08/14 11:42:55;;;;;;;4.97;4.47;;;;;;;29.81;38.52;99588.88;6273681;22;19999;-66
2022/08/14 11:45:27;;;;;;;5.85;4.88;;;;;;;29.78;38.23;99591.34;6273398;22;20011;-66
2022/08/14 11:47:55;;;;;;;4.82;4.10;;;;;;;29.71;38.07;99594.41;6273013;22;20027;-65